Time;durP1;ratioP1;P1;durP2;ratioP2;P2;SDS_P1;SDS_P2;PMS_P1;PMS_P2;Temp;Humidity;BMP_temperature;BMP_pressure;BME280_temperature;BME280_humidity;BME280_pressure;Samples;Min_cycle;Max_cycle;Signal;HPM_P1;HPM_P2
2023/08/09 00:00:22;;;;;;;;;;;17.80;69.40;;;;;;4992363;28;19928;-71
2023/08/09 00:02:48;;;;;;;;;;;17.80;69.60;;;;;;4993562;28;20056;-71
2023/08/09 00:05:13;;;;;;;;;;;17.80;69.70;;;;;;5015563;28;19921;-71
2023/08/09 00:07:38;;;;;;;;;;;17.80;69.70;;;;;;5032813;28;19909;-71
2023/08/09 00:10:04;;;;;;;;;;;17.80;69.70;;;;;;5033010;28;19917;-71
2023/08/09 00:12:31;;;;;;;;;;;17.70;69.70;;;;;;5032860;28;20032;-72
2023/08/09 00:14:57;;;;;;;;;;;17.70;69.60;;;;;;5025554;28;19969;-72
2023/08/09 00:17:22;;;;;;;;;;;17.70;69.60;;;;;;5012956;28;20085;-72
2023/08/09 00:19:48;;;;;;;;;;;17.60;69.60;;;;;;5013301;28;19917;-74
2023/08/09 00:22:13;;;;;;;;;;;17.60;69.70;;;;;;5013282;28;19909;-74
2023/08/09 00:24:39;;;;;;;;;;;17.60;69.70;;;;;;5012726;28;20015;-73
2023/08/09 00:27:05;;;;;;;;;;;17.50;69.80;;;;;;5010641;28;19960;-73
2023/08/09 00:29:33;;;;;;;;;;;17.50;69.90;;;;;;5012811;28;20016;-70
2023/08/09 00:31:59;;;;;;;;;;;17.50;70.00;;;;;;5012698;28;19918;-71
2023/08/09 00:34:25;;;;;;;;;;;17.50;70.10;;;;;;5012296;28;19917;-71
2023/08/09 00:36:51;;;;;;;;;;;17.50;70.10;;;;;;5012909;28;19917;-70
2023/08/09 00:39:17;;;;;;;;;;;17.50;70.20;;;;;;5012552;28;20435;-71
2023/08/09 00:41:42;;;;;;;;;;;17.50;70.20;;;;;;5012640;28;19909;-70
2023/08/09 00:44:07;;;;;;;;;;;17.50;70.20;;;;;;5010140;28;19918;-70
2023/08/09 00:46:37;;;;;;;;;;;17.50;70.20;;;;;;5012618;28;20422;-71
2023/08/09 00:49:03;;;;;;;;;;;17.50;70.20;;;;;;5009539;28;19922;-70
2023/08/09 00:51:29;;;;;;;;;;;17.50;70.20;;;;;;5012337;28;20027;-71
2023/08/09 00:53:54;;;;;;;;;;;17.50;70.30;;;;;;5012695;28;19913;-71
2023/08/09 00:56:20;;;;;;;;;;;17.50;70.30;;;;;;5012397;28;19933;-71
2023/08/09 00:58:45;;;;;;;;;;;17.50;70.30;;;;;;5011841;28;19931;-71
2023/08/09 01:01:10;;;;;;;;;;;17.50;70.30;;;;;;5012798;28;19921;-74
2023/08/09 01:03:36;;;;;;;;;;;17.50;70.30;;;;;;5012283;28;19920;-74
2023/08/09 01:06:24;;;;;;;;;;;17.50;70.30;;;;;;5012347;28;20421;-74
2023/08/09 01:09:10;;;;;;;;;;;17.50;70.30;;;;;;5012226;28;19913;-74
2023/08/09 01:11:55;;;;;;;;;;;17.50;70.30;;;;;;4991346;28;20311;-74
2023/08/09 01:14:22;;;;;;;;;;;17.50;70.30;;;;;;5011683;28;20297;-74
2023/08/09 01:16:49;;;;;;;;;;;17.50;70.20;;;;;;5012213;28;20179;-74
2023/08/09 01:19:35;;;;;;;;;;;17.50;70.10;;;;;;5012049;28;20289;-75
2023/08/09 01:22:05;;;;;;;;;;;17.50;70.00;;;;;;5010285;28;19913;-75
2023/08/09 01:24:31;;;;;;;;;;;17.40;69.80;;;;;;5008733;28;19921;-74
2023/08/09 01:26:57;;;;;;;;;;;17.40;69.50;;;;;;5012341;28;19918;-74
2023/08/09 01:29:22;;;;;;;;;;;17.30;68.90;;;;;;4993757;28;20334;-75
2023/08/09 01:31:48;;;;;;;;;;;17.20;68.30;;;;;;5011824;28;19967;-75
2023/08/09 01:34:13;;;;;;;;;;;17.10;68.00;;;;;;5011969;28;19925;-76
2023/08/09 01:36:40;;;;;;;;;;;17.00;67.90;;;;;;5008657;28;19920;-75
2023/08/09 01:39:10;;;;;;;;;;;16.90;67.90;;;;;;5010505;28;19918;-74
2023/08/09 01:41:37;;;;;;;;;;;16.80;68.10;;;;;;5009716;28;19913;-72
2023/08/09 01:44:03;;;;;;;;;;;16.80;68.40;;;;;;5007468;28;20035;-72
2023/08/09 01:46:29;;;;;;;;;;;16.70;68.80;;;;;;5013598;28;19914;-73
2023/08/09 01:49:22;;;;;;;;;;;16.70;68.80;;;;;;5016242;28;20341;-73
2023/08/09 01:51:48;;;;;;;;;;;16.70;68.80;;;;;;5011216;28;20003;-74
2023/08/09 01:54:14;;;;;;;;;;;16.60;68.60;;;;;;5015748;28;19921;-75
2023/08/09 01:56:40;;;;;;;;;;;16.50;68.50;;;;;;5015726;28;19934;-74
2023/08/09 01:59:06;;;;;;;;;;;16.40;68.20;;;;;;5015599;28;19921;-74
2023/08/09 02:01:31;;;;;;;;;;;16.40;68.10;;;;;;5013515;28;19919;-74
2023/08/09 02:03:57;;;;;;;;;;;16.30;68.00;;;;;;5012568;28;19921;-74
2023/08/09 02:06:23;;;;;;;;;;;16.30;67.70;;;;;;5015662;28;19921;-74
2023/08/09 02:08:48;;;;;;;;;;;16.20;67.50;;;;;;5015282;28;19920;-73
2023/08/09 02:11:13;;;;;;;;;;;16.10;67.30;;;;;;5013267;28;19913;-74
2023/08/09 02:13:39;;;;;;;;;;;16.00;67.10;;;;;;5009598;28;19922;-74
2023/08/09 02:16:06;;;;;;;;;;;15.90;67.00;;;;;;5015126;28;19963;-73
2023/08/09 02:18:32;;;;;;;;;;;15.80;67.10;;;;;;5015134;28;19918;-75
2023/08/09 02:20:59;;;;;;;;;;;15.70;67.40;;;;;;5015388;28;19968;-74
2023/08/09 02:23:24;;;;;;;;;;;15.70;67.40;;;;;;5015073;28;20385;-74
2023/08/09 02:25:52;;;;;;;;;;;15.60;67.40;;;;;;5014903;28;19983;-74
2023/08/09 02:28:18;;;;;;;;;;;15.60;67.50;;;;;;5014726;28;19968;-74
2023/08/09 02:30:43;;;;;;;;;;;15.50;67.30;;;;;;5014489;28;19921;-74
2023/08/09 02:33:09;;;;;;;;;;;15.40;67.20;;;;;;5014901;28;20020;-74
2023/08/09 02:35:50;;;;;;;;;;;15.30;67.20;;;;;;4999828;28;19918;-74
2023/08/09 02:38:15;;;;;;;;;;;15.20;67.20;;;;;;4995476;28;19960;-74
2023/08/09 02:40:41;;;;;;;;;;;15.10;67.20;;;;;;4998320;28;19996;-74
2023/08/09 02:43:06;;;;;;;;;;;15.00;67.10;;;;;;5015061;28;19913;-74
2023/08/09 02:45:32;;;;;;;;;;;15.00;67.20;;;;;;5014669;28;19917;-74
2023/08/09 02:47:57;;;;;;;;;;;15.00;67.60;;;;;;5014696;28;19921;-74
2023/08/09 02:50:23;;;;;;;;;;;15.00;68.90;;;;;;5014852;28;19960;-74
2023/08/09 02:52:50;;;;;;;;;;;15.20;69.90;;;;;;5014483;28;19917;-74
2023/08/09 02:55:17;;;;;;;;;;;15.30;70.60;;;;;;5014663;28;20365;-74
2023/08/09 02:57:42;;;;;;;;;;;15.40;71.00;;;;;;5014149;28;19913;-74
2023/08/09 03:00:08;;;;;;;;;;;15.60;71.20;;;;;;5014683;28;20312;-75
2023/08/09 03:02:34;;;;;;;;;;;15.70;71.40;;;;;;5014489;28;20019;-75
2023/08/09 03:05:00;;;;;;;;;;;15.80;71.50;;;;;;4996833;28;20352;-74
2023/08/09 03:07:25;;;;;;;;;;;16.00;71.50;;;;;;5013693;28;19913;-74
2023/08/09 03:09:51;;;;;;;;;;;16.10;71.40;;;;;;5014185;28;20427;-74
2023/08/09 03:12:16;;;;;;;;;;;16.20;71.30;;;;;;5014461;28;19968;-74
2023/08/09 03:14:42;;;;;;;;;;;16.30;71.20;;;;;;5013643;28;20367;-73
2023/08/09 03:17:07;;;;;;;;;;;16.40;71.10;;;;;;5014082;28;19972;-74
2023/08/09 03:19:33;;;;;;;;;;;16.40;70.80;;;;;;5012817;28;19945;-73
2023/08/09 03:21:58;;;;;;;;;;;16.30;70.30;;;;;;5014007;28;19941;-73
2023/08/09 03:24:24;;;;;;;;;;;16.30;69.70;;;;;;5009670;28;19922;-73
2023/08/09 03:26:49;;;;;;;;;;;16.20;69.20;;;;;;4999706;28;19917;-73
2023/08/09 03:29:15;;;;;;;;;;;16.00;68.80;;;;;;5013993;28;20396;-74
2023/08/09 03:31:41;;;;;;;;;;;15.90;68.40;;;;;;5013919;28;19917;-73
2023/08/09 03:34:07;;;;;;;;;;;15.80;68.10;;;;;;5014120;28;19913;-73
2023/08/09 03:36:32;;;;;;;;;;;15.70;67.80;;;;;;5013832;28;20396;-74
2023/08/09 03:38:58;;;;;;;;;;;15.50;67.50;;;;;;5013907;28;19914;-73
2023/08/09 03:41:25;;;;;;;;;;;15.40;67.40;;;;;;5013733;28;19921;-73
2023/08/09 03:43:50;;;;;;;;;;;15.30;67.30;;;;;;5013751;28;20033;-73
2023/08/09 03:46:16;;;;;;;;;;;15.30;67.30;;;;;;5013624;28;20072;-75
2023/08/09 03:48:41;;;;;;;;;;;15.20;67.40;;;;;;5013857;28;19920;-74
2023/08/09 03:51:07;;;;;;;;;;;15.10;67.50;;;;;;5013563;28;19913;-73
2023/08/09 03:53:32;;;;;;;;;;;15.00;67.60;;;;;;5013537;28;19917;-74
2023/08/09 03:55:57;;;;;;;;;;;15.00;67.70;;;;;;5013359;28;20024;-73
2023/08/09 03:58:23;;;;;;;;;;;15.00;67.80;;;;;;5012091;28;19921;-74
2023/08/09 04:00:48;;;;;;;;;;;14.90;67.70;;;;;;5013255;28;20361;-73
2023/08/09 04:03:14;;;;;;;;;;;14.90;67.60;;;;;;5013446;28;19914;-74
2023/08/09 04:05:39;;;;;;;;;;;14.80;67.50;;;;;;5013219;28;19909;-74
2023/08/09 04:08:06;;;;;;;;;;;14.80;67.60;;;;;;5013003;28;20270;-74
2023/08/09 04:10:32;;;;;;;;;;;14.80;67.70;;;;;;5012630;28;19917;-74
2023/08/09 04:12:58;;;;;;;;;;;14.70;67.70;;;;;;5012915;28;20285;-73
2023/08/09 04:15:23;;;;;;;;;;;14.70;67.80;;;;;;5013113;28;20000;-73
2023/08/09 04:17:49;;;;;;;;;;;14.70;68.30;;;;;;5013620;28;19913;-74
2023/08/09 04:20:16;;;;;;;;;;;14.80;68.60;;;;;;4995096;28;20388;-74
2023/08/09 04:22:41;;;;;;;;;;;14.90;68.90;;;;;;5013123;28;20041;-74
2023/08/09 04:25:10;;;;;;;;;;;15.00;69.20;;;;;;4995206;28;20456;-74
2023/08/09 04:27:36;;;;;;;;;;;15.20;69.40;;;;;;5012912;28;19917;-74
2023/08/09 04:30:03;;;;;;;;;;;15.20;69.10;;;;;;4994916;28;20004;-71
2023/08/09 04:32:29;;;;;;;;;;;15.30;69.00;;;;;;5008122;28;20008;-71
2023/08/09 04:34:54;;;;;;;;;;;15.30;68.80;;;;;;5011578;28;19917;-72
2023/08/09 04:37:20;;;;;;;;;;;15.30;68.50;;;;;;5012500;28;19920;-71
2023/08/09 04:39:45;;;;;;;;;;;15.30;68.40;;;;;;4994007;28;20022;-71
2023/08/09 04:42:11;;;;;;;;;;;15.30;68.50;;;;;;5012943;28;19932;-71
2023/08/09 04:44:36;;;;;;;;;;;15.50;69.20;;;;;;5012321;28;19930;-71
2023/08/09 04:47:03;;;;;;;;;;;15.80;70.10;;;;;;5012017;28;19996;-72
2023/08/09 04:49:28;;;;;;;;;;;16.10;70.70;;;;;;4993645;28;20415;-74
2023/08/09 04:51:54;;;;;;;;;;;16.50;71.20;;;;;;5013009;28;20081;-72
2023/08/09 04:54:20;;;;;;;;;;;17.00;71.70;;;;;;5002591;28;19922;-72
2023/08/09 04:56:46;;;;;;;;;;;17.40;72.00;;;;;;4993075;28;19910;-72
2023/08/09 04:59:12;;;;;;;;;;;17.90;72.20;;;;;;4992687;28;19928;-73
2023/08/09 05:01:37;;;;;;;;;;;18.30;72.10;;;;;;4992782;28;20269;-73
2023/08/09 05:04:03;;;;;;;;;;;18.70;72.30;;;;;;4992692;28;19981;-72
2023/08/09 05:06:28;;;;;;;;;;;19.20;72.50;;;;;;5002739;28;19917;-73
2023/08/09 05:08:54;;;;;;;;;;;19.70;72.30;;;;;;5012479;28;19921;-73
2023/08/09 05:11:19;;;;;;;;;;;20.00;71.90;;;;;;4994501;28;19996;-74
2023/08/09 05:13:45;;;;;;;;;;;20.50;71.80;;;;;;5011909;28;20309;-73
2023/08/09 05:16:10;;;;;;;;;;;20.80;71.70;;;;;;5011877;28;19921;-74
2023/08/09 05:18:35;;;;;;;;;;;21.20;71.80;;;;;;5009271;28;20420;-73
2023/08/09 05:21:01;;;;;;;;;;;21.60;71.60;;;;;;5002014;28;19914;-73
2023/08/09 05:23:27;;;;;;;;;;;22.00;71.60;;;;;;4992396;28;20004;-73
2023/08/09 05:25:52;;;;;;;;;;;22.40;71.40;;;;;;5000109;28;20280;-74
2023/08/09 05:28:18;;;;;;;;;;;22.80;71.00;;;;;;5011803;28;19921;-74
2023/08/09 05:30:44;;;;;;;;;;;23.10;70.70;;;;;;4994364;28;19913;-73
2023/08/09 05:33:09;;;;;;;;;;;23.50;70.50;;;;;;4993405;28;19918;-76
2023/08/09 05:35:35;;;;;;;;;;;23.80;70.00;;;;;;4985828;28;20396;-76
2023/08/09 05:38:01;;;;;;;;;;;24.10;69.40;;;;;;5011746;28;19964;-76
2023/08/09 05:40:26;;;;;;;;;;;24.30;69.50;;;;;;5010246;28;19952;-77
2023/08/09 05:42:52;;;;;;;;;;;24.60;69.30;;;;;;5012176;28;20316;-77
2023/08/09 05:45:17;;;;;;;;;;;24.80;69.00;;;;;;5008812;28;20017;-78
2023/08/09 05:47:43;;;;;;;;;;;25.10;68.80;;;;;;5010625;28;20012;-78
2023/08/09 05:50:08;;;;;;;;;;;25.40;68.70;;;;;;5012105;28;20281;-77
2023/08/09 05:52:34;;;;;;;;;;;25.60;68.20;;;;;;4994045;28;19980;-78
2023/08/09 05:54:59;;;;;;;;;;;25.80;68.10;;;;;;5011821;28;20036;-77
2023/08/09 05:57:25;;;;;;;;;;;26.10;67.80;;;;;;5008681;28;19925;-77
2023/08/09 05:59:51;;;;;;;;;;;26.30;67.90;;;;;;5009931;28;19926;-78
2023/08/09 06:02:17;;;;;;;;;;;26.50;67.60;;;;;;5010967;28;19918;-78
2023/08/09 06:04:43;;;;;;;;;;;26.80;68.30;;;;;;5011302;28;19914;-78
2023/08/09 06:07:09;;;;;;;;;;;27.00;67.90;;;;;;4995045;28;19918;-79
2023/08/09 06:09:34;;;;;;;;;;;27.30;67.70;;;;;;4992530;28;19914;-79
2023/08/09 06:12:04;;;;;;;;;;;27.50;67.20;;;;;;4991930;28;19918;-80
2023/08/09 06:14:30;;;;;;;;;;;27.80;67.30;;;;;;4993007;28;20331;-80
2023/08/09 06:16:56;;;;;;;;;;;28.00;66.90;;;;;;4993223;28;19954;-80
2023/08/09 06:19:31;;;;;;;;;;;28.30;67.10;;;;;;5009270;28;19914;-79
2023/08/09 06:22:00;;;;;;;;;;;28.50;67.90;;;;;;4993661;28;19972;-79
2023/08/09 06:24:26;;;;;;;;;;;28.90;68.10;;;;;;5011197;28;19921;-79
2023/08/09 06:26:52;;;;;;;;;;;29.20;67.10;;;;;;5010983;28;19913;-78
2023/08/09 06:29:18;;;;;;;;;;;29.30;67.10;;;;;;4995649;28;19917;-78
2023/08/09 06:31:43;;;;;;;;;;;29.60;67.40;;;;;;5025143;28;19913;-78
2023/08/09 06:34:09;;;;;;;;;;;29.80;67.80;;;;;;5030518;28;19918;-77
2023/08/09 06:36:34;;;;;;;;;;;30.10;67.80;;;;;;5025280;28;20323;-78
2023/08/09 06:39:00;;;;;;;;;;;30.40;67.40;;;;;;5024524;28;19917;-79
2023/08/09 06:41:25;;;;;;;;;;;30.70;67.20;;;;;;5005999;28;19915;-79
2023/08/09 06:43:50;;;;;;;;;;;31.00;67.40;;;;;;5022037;28;19918;-79
2023/08/09 06:46:16;;;;;;;;;;;31.20;67.20;;;;;;5005664;28;20367;-78
2023/08/09 06:48:42;;;;;;;;;;;31.50;67.60;;;;;;5022879;28;19949;-80
2023/08/09 06:51:07;;;;;;;;;;;31.80;67.90;;;;;;5019399;28;19913;-80
2023/08/09 06:53:33;;;;;;;;;;;32.00;67.30;;;;;;5020841;28;19944;-80
2023/08/09 06:55:58;;;;;;;;;;;32.10;67.50;;;;;;5020228;28;20353;-80
2023/08/09 06:58:24;;;;;;;;;;;32.40;68.10;;;;;;4957462;28;1789557;-78
2023/08/09 07:00:49;;;;;;;;;;;32.70;66.90;;;;;;5020109;28;19912;-80
2023/08/09 07:03:15;;;;;;;;;;;32.80;68.00;;;;;;5017620;28;20272;-80
2023/08/09 07:05:41;;;;;;;;;;;33.20;68.50;;;;;;5018243;28;19913;-80
2023/08/09 07:08:06;;;;;;;;;;;33.50;67.90;;;;;;5018476;28;19936;-80
2023/08/09 07:10:32;;;;;;;;;;;33.70;66.60;;;;;;5018465;28;19913;-81
2023/08/09 07:12:57;;;;;;;;;;;33.80;64.80;;;;;;5017041;28;19928;-79
2023/08/09 07:15:23;;;;;;;;;;;33.90;65.50;;;;;;5000546;28;19925;-80
2023/08/09 07:17:48;;;;;;;;;;;34.20;66.60;;;;;;5018517;28;20372;-81
2023/08/09 07:20:14;;;;;;;;;;;34.30;64.90;;;;;;5000720;28;19913;-80
2023/08/09 07:22:41;;;;;;;;;;;34.30;63.90;;;;;;5017915;28;19944;-80
2023/08/09 07:25:10;;;;;;;;;;;34.30;63.70;;;;;;5017625;28;20369;-81
2023/08/09 07:27:43;;;;;;;;;;;34.40;63.80;;;;;;5017585;28;19924;-81
2023/08/09 07:30:10;;;;;;;;;;;34.60;63.60;;;;;;5017751;28;19913;-81
2023/08/09 07:32:38;;;;;;;;;;;34.80;62.90;;;;;;5015696;28;20335;-82
2023/08/09 07:35:08;;;;;;;;;;;35.00;61.50;;;;;;4983649;28;19993;-80
2023/08/09 07:37:35;;;;;;;;;;;35.20;60.00;;;;;;4987068;28;19944;-81
2023/08/09 07:40:01;;;;;;;;;;;35.30;57.30;;;;;;5015345;28;20008;-81
2023/08/09 07:42:26;;;;;;;;;;;35.30;57.20;;;;;;5012397;28;20000;-81
2023/08/09 07:44:52;;;;;;;;;;;35.40;54.60;;;;;;5013945;28;20365;-81
2023/08/09 07:47:17;;;;;;;;;;;35.40;56.00;;;;;;5014594;28;19960;-81
2023/08/09 07:49:42;;;;;;;;;;;35.70;53.20;;;;;;5014743;28;19984;-81
2023/08/09 07:52:08;;;;;;;;;;;35.90;54.30;;;;;;5011888;28;19917;-81
2023/08/09 07:54:34;;;;;;;;;;;36.10;52.50;;;;;;5014988;28;19917;-81
2023/08/09 07:56:59;;;;;;;;;;;36.40;54.80;;;;;;4997121;28;20373;-81
2023/08/09 07:59:25;;;;;;;;;;;36.70;52.50;;;;;;4996173;28;20384;-72
2023/08/09 08:01:50;;;;;;;;;;;36.90;49.10;;;;;;5010579;28;19921;-72
2023/08/09 08:04:16;;;;;;;;;;;37.10;50.80;;;;;;5013480;28;19913;-73
2023/08/09 08:06:41;;;;;;;;;;;37.30;47.10;;;;;;5010869;28;19913;-72
2023/08/09 08:09:12;;;;;;;;;;;37.50;46.40;;;;;;5012799;28;20011;-73
2023/08/09 08:11:38;;;;;;;;;;;37.70;45.70;;;;;;5013018;28;19913;-73
2023/08/09 08:14:04;;;;;;;;;;;38.00;44.20;;;;;;4993439;28;20328;-72
2023/08/09 08:16:29;;;;;;;;;;;38.20;43.00;;;;;;5008846;28;19917;-73
2023/08/09 08:18:55;;;;;;;;;;;38.40;41.20;;;;;;4989395;28;19960;-72
2023/08/09 08:21:20;;;;;;;;;;;38.60;41.00;;;;;;4996009;28;19917;-73
2023/08/09 08:23:46;;;;;;;;;;;38.80;39.90;;;;;;5013610;28;19917;-72
2023/08/09 08:26:11;;;;;;;;;;;39.00;38.20;;;;;;5011584;28;19924;-72
2023/08/09 08:28:37;;;;;;;;;;;39.10;36.40;;;;;;5013394;28;19953;-72
2023/08/09 08:31:05;;;;;;;;;;;39.20;36.40;;;;;;5011690;28;19917;-73
2023/08/09 08:33:30;;;;;;;;;;;39.30;34.40;;;;;;4982854;28;20012;-73
2023/08/09 08:35:56;;;;;;;;;;;39.30;32.90;;;;;;4999651;28;20009;-73
2023/08/09 08:38:22;;;;;;;;;;;39.40;33.10;;;;;;5011977;28;20428;-73
2023/08/09 08:40:48;;;;;;;;;;;39.50;32.30;;;;;;5012976;28;19963;-73
2023/08/09 08:43:14;;;;;;;;;;;39.50;29.00;;;;;;5012742;28;19948;-73
2023/08/09 08:45:40;;;;;;;;;;;39.40;29.60;;;;;;4994764;28;19925;-73
2023/08/09 08:48:10;;;;;;;;;;;39.40;29.90;;;;;;5012752;28;19920;-72
2023/08/09 08:50:37;;;;;;;;;;;39.40;30.20;;;;;;4993622;28;19932;-72
2023/08/09 08:53:04;;;;;;;;;;;39.60;29.80;;;;;;5012980;28;19917;-72
2023/08/09 08:55:30;;;;;;;;;;;39.60;28.50;;;;;;5012575;28;19925;-72
2023/08/09 08:57:56;;;;;;;;;;;39.70;28.30;;;;;;5012203;28;19914;-72
2023/08/09 09:00:22;;;;;;;;;;;39.70;27.50;;;;;;5012523;28;19944;-73
2023/08/09 09:02:49;;;;;;;;;;;39.70;27.50;;;;;;5011166;28;19918;-73
2023/08/09 09:05:16;;;;;;;;;;;39.80;28.00;;;;;;5012700;28;19921;-73
2023/08/09 09:07:42;;;;;;;;;;;40.10;28.00;;;;;;5012379;28;19960;-72
2023/08/09 09:10:12;;;;;;;;;;;40.20;26.70;;;;;;5004436;28;19924;-77
2023/08/09 09:12:38;;;;;;;;;;;40.20;26.50;;;;;;5002665;28;20329;-76
2023/08/09 09:15:05;;;;;;;;;;;40.00;25.90;;;;;;5018364;28;19968;-78
2023/08/09 09:17:35;;;;;;;;;;;39.80;25.90;;;;;;5021001;28;19937;-76
2023/08/09 09:20:01;;;;;;;;;;;39.80;25.70;;;;;;5021908;28;19918;-77
2023/08/09 09:22:28;;;;;;;;;;;39.80;25.60;;;;;;5021833;28;19937;-77
2023/08/09 09:25:01;;;;;;;;;;;40.00;26.00;;;;;;5020384;28;19928;-77
2023/08/09 09:27:27;;;;;;;;;;;40.20;25.90;;;;;;5021239;28;19917;-76
2023/08/09 09:29:53;;;;;;;;;;;40.30;24.70;;;;;;4988686;28;20274;-76
2023/08/09 09:32:20;;;;;;;;;;;40.30;24.40;;;;;;5019687;28;19977;-76
2023/08/09 09:34:45;;;;;;;;;;;40.40;24.40;;;;;;5021045;28;19921;-75
2023/08/09 09:37:14;;;;;;;;;;;40.50;24.20;;;;;;5021321;28;19999;-77
2023/08/09 09:39:41;;;;;;;;;;;40.70;23.80;;;;;;5021959;28;20320;-76
2023/08/09 09:42:09;;;;;;;;;;;40.80;22.80;;;;;;5021952;28;20277;-77
2023/08/09 09:44:35;;;;;;;;;;;40.80;23.10;;;;;;5002633;28;19928;-76
2023/08/09 09:47:00;;;;;;;;;;;40.90;22.80;;;;;;5004171;28;20008;-77
2023/08/09 09:49:26;;;;;;;;;;;41.10;22.40;;;;;;5020805;28;19968;-77
2023/08/09 09:51:53;;;;;;;;;;;41.20;21.60;;;;;;5020831;28;19917;-76
2023/08/09 09:54:19;;;;;;;;;;;41.00;21.30;;;;;;5021832;28;19913;-76
2023/08/09 09:56:45;;;;;;;;;;;41.00;21.60;;;;;;5019473;28;19940;-77
2023/08/09 09:59:10;;;;;;;;;;;41.10;21.90;;;;;;5002000;28;19917;-76
2023/08/09 10:01:41;;;;;;;;;;;41.30;21.10;;;;;;5020103;28;20008;-76
2023/08/09 10:04:09;;;;;;;;;;;41.10;20.40;;;;;;5020418;28;19917;-76
2023/08/09 10:06:37;;;;;;;;;;;40.70;20.30;;;;;;5019798;28;20428;-76
2023/08/09 10:09:04;;;;;;;;;;;40.70;21.00;;;;;;5026014;28;19913;-76
2023/08/09 10:11:32;;;;;;;;;;;40.80;21.20;;;;;;5024292;28;20387;-76
2023/08/09 10:14:00;;;;;;;;;;;40.90;20.80;;;;;;5007399;28;19917;-74
2023/08/09 10:16:28;;;;;;;;;;;41.10;21.10;;;;;;5025803;28;19917;-76
2023/08/09 10:18:58;;;;;;;;;;;41.20;20.30;;;;;;5024888;28;20272;-76
2023/08/09 10:21:24;;;;;;;;;;;41.10;19.70;;;;;;4989674;28;19979;-76
2023/08/09 10:23:54;;;;;;;;;;;41.00;19.70;;;;;;4986464;28;19910;-76
2023/08/09 10:26:26;;;;;;;;;;;40.90;19.70;;;;;;5014136;28;20404;-75
2023/08/09 10:28:51;;;;;;;;;;;40.80;20.30;;;;;;5022017;28;20364;-76
2023/08/09 10:31:36;;;;;;;;;;;40.90;20.20;;;;;;5022991;28;19972;-76
2023/08/09 10:34:07;;;;;;;;;;;40.90;20.10;;;;;;5020764;28;19930;-76
2023/08/09 10:36:33;;;;;;;;;;;40.40;18.90;;;;;;5005164;28;19913;-76
2023/08/09 10:38:58;;;;;;;;;;;39.70;19.90;;;;;;5021010;28;19920;-75
2023/08/09 10:41:27;;;;;;;;;;;39.50;20.20;;;;;;5001935;28;19913;-75
2023/08/09 10:44:00;;;;;;;;;;;39.50;20.60;;;;;;5021938;28;19917;-75
2023/08/09 10:46:26;;;;;;;;;;;39.60;20.50;;;;;;5020032;28;19959;-75
2023/08/09 10:48:55;;;;;;;;;;;39.50;20.50;;;;;;5020706;28;19913;-74
2023/08/09 10:51:22;;;;;;;;;;;39.10;20.00;;;;;;5001894;28;19921;-75
2023/08/09 10:54:01;;;;;;;;;;;38.50;19.90;;;;;;5000968;28;19925;-75
2023/08/09 10:56:42;;;;;;;;;;;38.10;20.60;;;;;;5018906;28;19964;-75
2023/08/09 10:59:12;;;;;;;;;;;37.90;21.30;;;;;;5000258;28;19928;-75
2023/08/09 11:01:38;;;;;;;;;;;38.20;20.90;;;;;;5019305;28;19913;-75
2023/08/09 11:04:06;;;;;;;;;;;38.20;20.70;;;;;;5018448;28;20383;-75
2023/08/09 11:06:33;;;;;;;;;;;38.10;21.00;;;;;;5019603;28;20379;-75
2023/08/09 11:09:24;;;;;;;;;;;38.30;21.30;;;;;;5018844;28;20370;-74
2023/08/09 11:11:51;;;;;;;;;;;38.10;21.00;;;;;;5016190;28;19913;-75
2023/08/09 11:14:17;;;;;;;;;;;38.00;20.90;;;;;;5018903;28;20447;-75
2023/08/09 11:16:43;;;;;;;;;;;37.80;20.20;;;;;;5017507;28;19948;-75
2023/08/09 11:19:10;;;;;;;;;;;37.40;20.70;;;;;;5019468;28;19929;-76
2023/08/09 11:21:46;;;;;;;;;;;37.10;20.90;;;;;;5002711;28;19970;-75
2023/08/09 11:24:12;;;;;;;;;;;36.80;21.00;;;;;;5017765;28;19921;-75
2023/08/09 11:26:38;;;;;;;;;;;36.60;21.60;;;;;;5017606;28;19920;-73
2023/08/09 11:29:05;;;;;;;;;;;36.50;21.70;;;;;;5016918;28;19972;-75
2023/08/09 11:31:39;;;;;;;;;;;36.50;21.70;;;;;;5020576;28;19981;-77
2023/08/09 11:34:05;;;;;;;;;;;36.70;22.10;;;;;;5000903;28;19957;-78
2023/08/09 11:36:30;;;;;;;;;;;36.70;22.00;;;;;;5019183;28;19963;-73
2023/08/09 11:38:57;;;;;;;;;;;36.90;21.90;;;;;;5019732;28;19914;-76
2023/08/09 11:41:26;;;;;;;;;;;37.10;20.50;;;;;;5018512;28;19925;-75
2023/08/09 11:43:52;;;;;;;;;;;36.70;20.30;;;;;;5017994;28;19918;-75
2023/08/09 11:46:19;;;;;;;;;;;36.60;21.10;;;;;;5019365;28;19913;-76
2023/08/09 11:48:44;;;;;;;;;;;36.70;21.60;;;;;;5000066;28;19957;-76
2023/08/09 11:51:14;;;;;;;;;;;36.90;21.30;;;;;;5019288;28;19921;-76
2023/08/09 11:53:40;;;;;;;;;;;37.00;21.40;;;;;;5020908;28;20392;-76
2023/08/09 11:56:07;;;;;;;;;;;36.90;21.60;;;;;;5017723;28;20307;-76
2023/08/09 11:58:34;;;;;;;;;;;36.90;21.30;;;;;;5019951;28;19913;-76
2023/08/09 12:00:59;;;;;;;;;;;36.80;20.80;;;;;;5017836;28;19961;-76
2023/08/09 12:03:25;;;;;;;;;;;36.80;21.40;;;;;;5020656;28;19913;-75
2023/08/09 12:05:51;;;;;;;;;;;36.80;20.80;;;;;;5002080;28;19988;-76
2023/08/09 12:08:16;;;;;;;;;;;36.60;21.20;;;;;;5017107;28;19944;-76
2023/08/09 12:10:42;;;;;;;;;;;36.30;21.30;;;;;;5018206;28;19910;-76
2023/08/09 12:13:09;;;;;;;;;;;36.10;21.50;;;;;;4997906;28;19921;-72
2023/08/09 12:15:35;;;;;;;;;;;35.80;22.00;;;;;;5017272;28;19910;-77
2023/08/09 12:18:00;;;;;;;;;;;35.40;22.00;;;;;;5000728;28;19921;-74
2023/08/09 12:20:26;;;;;;;;;;;35.20;22.50;;;;;;5019815;28;19949;-76
2023/08/09 12:22:51;;;;;;;;;;;35.20;22.80;;;;;;5017768;28;19928;-77
2023/08/09 12:25:17;;;;;;;;;;;35.30;23.00;;;;;;5015658;28;19921;-76
2023/08/09 12:27:43;;;;;;;;;;;35.40;23.00;;;;;;5000644;28;20277;-76
2023/08/09 12:30:10;;;;;;;;;;;35.40;22.40;;;;;;5015171;28;20344;-76
2023/08/09 12:32:36;;;;;;;;;;;35.30;22.50;;;;;;5017361;28;19975;-77
2023/08/09 12:35:02;;;;;;;;;;;35.20;22.50;;;;;;5017670;28;19914;-75
2023/08/09 12:37:27;;;;;;;;;;;35.00;22.40;;;;;;5015448;28;19920;-75
2023/08/09 12:39:53;;;;;;;;;;;34.70;22.20;;;;;;5014563;28;20004;-68
2023/08/09 12:42:19;;;;;;;;;;;34.20;22.50;;;;;;4994244;28;19944;-69
2023/08/09 12:44:44;;;;;;;;;;;33.80;23.10;;;;;;5012496;28;20368;-69
2023/08/09 12:47:11;;;;;;;;;;;33.70;23.60;;;;;;5011728;28;19913;-68
2023/08/09 12:49:36;;;;;;;;;;;33.70;23.90;;;;;;5012254;28;19918;-68
2023/08/09 12:52:02;;;;;;;;;;;33.80;24.20;;;;;;5012099;28;20312;-70
2023/08/09 12:54:27;;;;;;;;;;;34.10;24.60;;;;;;5011653;28;19917;-69
2023/08/09 12:56:53;;;;;;;;;;;34.20;23.50;;;;;;5012655;28;20004;-69
2023/08/09 12:59:18;;;;;;;;;;;34.20;23.10;;;;;;5011378;28;20412;-69
2023/08/09 13:01:44;;;;;;;;;;;34.00;23.40;;;;;;5012644;28;20016;-69
2023/08/09 13:04:09;;;;;;;;;;;34.10;23.30;;;;;;4994046;28;19914;-69
2023/08/09 13:06:35;;;;;;;;;;;34.10;23.10;;;;;;5012459;28;20179;-68
2023/08/09 13:09:00;;;;;;;;;;;33.90;23.20;;;;;;5011204;28;19956;-69
2023/08/09 13:11:26;;;;;;;;;;;33.70;23.30;;;;;;5012325;28;20008;-68
2023/08/09 13:13:51;;;;;;;;;;;33.50;23.80;;;;;;5010876;28;20296;-68
2023/08/09 13:16:17;;;;;;;;;;;33.40;24.00;;;;;;4995065;28;19917;-69
2023/08/09 13:18:42;;;;;;;;;;;33.30;24.10;;;;;;5012002;28;20000;-68
2023/08/09 13:21:11;;;;;;;;;;;33.30;24.30;;;;;;5010089;28;20365;-68
2023/08/09 13:23:37;;;;;;;;;;;33.30;24.50;;;;;;5011088;28;19965;-68
2023/08/09 13:26:02;;;;;;;;;;;33.30;24.30;;;;;;5011993;28;19945;-68
2023/08/09 13:28:28;;;;;;;;;;;33.30;24.10;;;;;;5010437;28;19924;-68
2023/08/09 13:30:54;;;;;;;;;;;33.30;23.90;;;;;;5011963;28;19914;-68
2023/08/09 13:33:19;;;;;;;;;;;33.00;24.30;;;;;;5011960;28;19917;-68
2023/08/09 13:35:45;;;;;;;;;;;32.70;24.40;;;;;;5010289;28;19923;-67
2023/08/09 13:38:31;;;;;;;;;;;32.40;24.60;;;;;;5010936;28;19918;-68
2023/08/09 13:40:58;;;;;;;;;;;32.20;24.90;;;;;;5011612;28;19971;-70
2023/08/09 13:43:24;;;;;;;;;;;31.90;25.10;;;;;;5009316;28;19919;-68
2023/08/09 13:45:49;;;;;;;;;;;32.10;25.00;;;;;;5011560;28;19918;-68
2023/08/09 13:48:15;;;;;;;;;;;32.30;25.00;;;;;;5010297;28;20646;-68
2023/08/09 13:50:40;;;;;;;;;;;32.50;25.10;;;;;;5017916;28;19914;-75
2023/08/09 13:53:06;;;;;;;;;;;32.80;25.00;;;;;;5018340;28;19921;-76
2023/08/09 13:55:32;;;;;;;;;;;33.10;25.00;;;;;;5018306;28;19910;-75
2023/08/09 13:57:57;;;;;;;;;;;33.40;24.90;;;;;;4996506;28;19921;-75
2023/08/09 14:00:23;;;;;;;;;;;33.30;24.10;;;;;;5015958;28;19917;-76
2023/08/09 14:02:48;;;;;;;;;;;33.10;24.40;;;;;;5017258;28;19917;-76
2023/08/09 14:05:15;;;;;;;;;;;32.80;24.60;;;;;;4997109;28;19918;-75
2023/08/09 14:07:40;;;;;;;;;;;32.70;24.50;;;;;;4998617;28;20365;-76
2023/08/09 14:10:06;;;;;;;;;;;32.90;24.60;;;;;;5012171;28;19924;-76
2023/08/09 14:12:32;;;;;;;;;;;33.30;24.30;;;;;;5014133;28;19917;-76